Time;durP1;ratioP1;P1;durP2;ratioP2;P2;SDS_P1;SDS_P2;PMS_P1;PMS_P2;Temp;Humidity;BMP_temperature;BMP_pressure;BME280_temperature;BME280_humidity;BME280_pressure;Samples;Min_cycle;Max_cycle;Signal;HPM_P1;HPM_P2
2021/12/13 00:00:48;;;;;;;;;;;;;;;-1.41;100.00;90685.22;5113281;28;20366;-69
2021/12/13 00:03:19;;;;;;;;;;;;;;;-1.41;100.00;90682.63;5113256;28;19916;-68
2021/12/13 00:05:47;;;;;;;;;;;;;;;-1.39;100.00;90686.56;5113123;28;19973;-68
2021/12/13 00:08:17;;;;;;;;;;;;;;;-1.43;100.00;90687.25;5112953;28;19916;-68
2021/12/13 00:10:45;;;;;;;;;;;;;;;-1.52;100.00;90681.69;5113127;28;19915;-68
2021/12/13 00:13:14;;;;;;;;;;;;;;;-1.54;100.00;90689.75;5113022;28;19955;-68
2021/12/13 00:15:46;;;;;;;;;;;;;;;-1.48;100.00;90689.81;5113277;28;19955;-69
2021/12/13 00:18:15;;;;;;;;;;;;;;;-1.46;100.00;90690.38;5112896;28;19923;-68
2021/12/13 00:20:44;;;;;;;;;;;;;;;-1.46;100.00;90698.19;5112863;28;19920;-68
2021/12/13 00:23:21;;;;;;;;;;;;;;;-1.53;100.00;90699.16;5112786;28;19966;-68
2021/12/13 00:25:50;;;;;;;;;;;;;;;-1.49;100.00;90688.25;5094589;28;20058;-68
2021/12/13 00:28:18;;;;;;;;;;;;;;;-1.48;100.00;90697.66;5112627;28;19920;-68
2021/12/13 00:31:01;;;;;;;;;;;;;;;-1.34;100.00;90693.66;5112752;28;19926;-68
2021/12/13 00:33:47;;;;;;;;;;;;;;;-1.41;100.00;90698.28;5112841;28;19955;-68
2021/12/13 00:36:25;;;;;;;;;;;;;;;-1.39;100.00;90691.00;5098251;28;19916;-69
2021/12/13 00:38:55;;;;;;;;;;;;;;;-1.62;100.00;90697.22;5112544;28;19926;-68
2021/12/13 00:41:24;;;;;;;;;;;;;;;-1.56;100.00;90689.22;5094562;28;20002;-68
2021/12/13 00:43:52;;;;;;;;;;;;;;;-1.49;100.00;90701.28;5112549;28;20461;-69
2021/12/13 00:46:18;;;;;;;;;;;;;;;-1.54;100.00;90700.19;5112003;28;20317;-68
2021/12/13 00:48:45;;;;;;;;;;;;;;;-1.49;100.00;90698.69;5112281;28;19919;-68
2021/12/13 00:51:14;;;;;;;;;;;;;;;-1.49;100.00;90699.47;5111730;28;19919;-68
2021/12/13 00:53:42;;;;;;;;;;;;;;;-1.58;100.00;90699.09;5112048;28;20332;-69
2021/12/13 00:56:25;;;;;;;;;;;;;;;-1.58;100.00;90699.09;5112221;28;19927;-69
2021/12/13 00:58:51;;;;;;;;;;;;;;;-1.65;100.00;90708.13;5112267;28;19916;-68
2021/12/13 01:01:17;;;;;;;;;;;;;;;-1.57;100.00;90702.50;5112240;28;19942;-68
2021/12/13 01:03:48;;;;;;;;;;;;;;;-1.56;100.00;90693.66;5112423;28;19966;-68
2021/12/13 01:06:19;;;;;;;;;;;;;;;-1.60;100.00;90695.94;5112012;28;19916;-69
2021/12/13 01:08:47;;;;;;;;;;;;;;;-1.66;100.00;90696.91;5112140;28;19922;-68
2021/12/13 01:11:19;;;;;;;;;;;;;;;-1.66;100.00;90699.50;5112137;28;19916;-68
2021/12/13 01:13:48;;;;;;;;;;;;;;;-1.68;100.00;90700.78;5112077;28;19951;-68
2021/12/13 01:19:23;;;;;;;;;;;;;;;-1.63;100.00;90698.25;5112404;28;19954;-69
2021/12/13 01:22:01;;;;;;;;;;;;;;;-1.56;100.00;90693.66;5111861;28;19973;-69
2021/12/13 01:27:38;;;;;;;;;;;;;;;-1.75;100.00;90687.91;5077454;28;19971;-68
2021/12/13 01:30:07;;;;;;;;;;;;;;;-1.64;100.00;90683.63;5111985;28;19916;-68
2021/12/13 01:32:37;;;;;;;;;;;;;;;-1.65;100.00;90682.03;5111762;28;19920;-68
2021/12/13 01:35:03;;;;;;;;;;;;;;;-1.73;100.00;90691.09;5093502;28;20355;-68
2021/12/13 01:37:31;;;;;;;;;;;;;;;-1.72;100.00;90686.66;5111630;28;20285;-68
2021/12/13 01:40:02;;;;;;;;;;;;;;;-1.74;100.00;90689.47;5111798;28;19941;-68
2021/12/13 01:42:29;;;;;;;;;;;;;;;-1.81;100.00;90692.28;5111768;28;19923;-68
2021/12/13 01:44:56;;;;;;;;;;;;;;;-1.84;100.00;90687.53;5111807;28;20403;-68
2021/12/13 01:47:25;;;;;;;;;;;;;;;-1.79;100.00;90689.41;5111866;28;19916;-68
2021/12/13 01:49:53;;;;;;;;;;;;;;;-1.71;100.00;90694.25;5111555;28;19943;-69
2021/12/13 01:52:30;;;;;;;;;;;;;;;-1.68;100.00;90691.16;5111695;28;19923;-69
2021/12/13 01:54:57;;;;;;;;;;;;;;;-1.60;100.00;90674.28;5111651;28;19923;-69
2021/12/13 01:57:27;;;;;;;;;;;;;;;-1.54;100.00;90684.56;5111570;28;19920;-69
2021/12/13 02:00:07;;;;;;;;;;;;;;;-1.46;100.00;90680.72;5111923;28;19920;-69
2021/12/13 02:02:32;;;;;;;;;;;;;;;-1.51;100.00;90684.06;5111605;28;19920;-69
2021/12/13 02:04:58;;;;;;;;;;;;;;;-1.47;100.00;90683.56;5111550;28;20358;-69
2021/12/13 02:07:25;;;;;;;;;;;;;;;-1.52;100.00;90685.09;5114658;28;20286;-69
2021/12/13 02:09:50;;;;;;;;;;;;;;;-1.50;100.00;90687.47;5115487;28;19916;-69
2021/12/13 02:12:17;;;;;;;;;;;;;;;-1.43;100.00;90687.25;5115362;28;20353;-69
2021/12/13 02:16:59;;;;;;;;;;;;;;;-1.50;100.00;90684.84;5115337;28;19920;-68
2021/12/13 02:17:40;;;;;;;;;;;;;;;-1.63;100.00;90680.78;5115129;28;19923;-68
2021/12/13 02:20:11;;;;;;;;;;;;;;;-1.70;100.00;90685.38;5115342;28;19916;-68
2021/12/13 02:22:41;;;;;;;;;;;;;;;-1.81;100.00;90686.28;5096937;28;19923;-69
2021/12/13 02:25:19;;;;;;;;;;;;;;;-1.84;100.00;90687.53;5115191;28;20433;-69
2021/12/13 02:27:48;;;;;;;;;;;;;;;-1.88;100.00;90683.06;5115092;28;19916;-69
2021/12/13 02:30:17;;;;;;;;;;;;;;;-1.90;100.00;90679.88;5115091;28;19916;-68
2021/12/13 02:32:45;;;;;;;;;;;;;;;-1.94;100.00;90682.19;5115040;28;20048;-68
2021/12/13 02:35:12;;;;;;;;;;;;;;;-1.95;100.00;90688.44;5251697;22;19926;-68
2021/12/13 02:37:38;;;;;;;;;;;;;;;-2.03;100.00;90685.44;5094924;28;19934;-65
2021/12/13 02:40:05;;;;;;;;;;;;;;;-2.00;100.00;90690.19;5094634;28;19923;-65
2021/12/13 02:42:31;;;;;;;;;;;;;;;-2.13;100.00;90689.47;5094539;28;19926;-65
2021/12/13 02:45:04;;;;;;;;;;;;;;;-2.17;100.00;90690.97;5094504;28;19912;-67
2021/12/13 02:47:35;;;;;;;;;;;;;;;-2.13;100.00;90686.09;5094834;28;19923;-67
2021/12/13 02:50:01;;;;;;;;;;;;;;;-1.95;100.00;90683.22;5094461;28;19919;-65
2021/12/13 02:52:27;;;;;;;;;;;;;;;-1.88;100.00;90683.84;5094684;28;20021;-65
2021/12/13 02:54:59;;;;;;;;;;;;;;;-1.85;100.00;90677.34;5094162;28;20408;-65
2021/12/13 02:57:27;;;;;;;;;;;;;;;-1.84;100.00;90684.16;5094234;28;20420;-64
2021/12/13 02:59:55;;;;;;;;;;;;;;;-1.95;100.00;90691.03;5094236;28;19924;-65
2021/12/13 03:02:21;;;;;;;;;;;;;;;-1.90;100.00;90679.88;5094193;28;20359;-65
2021/12/13 03:04:48;;;;;;;;;;;;;;;-1.87;100.00;90684.63;5094153;28;19919;-65
2021/12/13 03:07:25;;;;;;;;;;;;;;;-1.83;100.00;90680.50;5094077;28;19982;-65
2021/12/13 03:09:52;;;;;;;;;;;;;;;-1.81;100.00;90687.06;5094084;28;19950;-65
2021/12/13 03:12:19;;;;;;;;;;;;;;;-1.73;100.00;90682.47;5075862;28;19916;-65
2021/12/13 03:14:50;;;;;;;;;;;;;;;-1.69;100.00;90686.97;5075691;28;19986;-65
2021/12/13 03:17:16;;;;;;;;;;;;;;;-1.71;100.00;90677.81;5093831;28;19945;-65
2021/12/13 03:19:52;;;;;;;;;;;;;;;-1.66;100.00;90683.88;5093889;28;20022;-65
2021/12/13 03:22:20;;;;;;;;;;;;;;;-1.63;100.00;90691.19;5093792;28;19927;-65
2021/12/13 03:24:46;;;;;;;;;;;;;;;-1.66;100.00;90691.69;5093595;28;20361;-66
2021/12/13 03:27:23;;;;;;;;;;;;;;;-1.63;100.00;90687.81;5093621;28;20030;-65
2021/12/13 03:30:04;;;;;;;;;;;;;;;-1.56;100.00;90691.03;5093673;28;19965;-65
2021/12/13 03:32:52;;;;;;;;;;;;;;;-1.55;100.00;90690.78;5093607;28;19924;-65
2021/12/13 03:35:41;;;;;;;;;;;;;;;-1.53;100.00;90695.78;5084894;28;19920;-65
2021/12/13 03:38:08;;;;;;;;;;;;;;;-1.48;100.00;90702.88;5085020;28;19946;-65
2021/12/13 03:40:34;;;;;;;;;;;;;;;-1.41;100.00;90699.06;5093421;28;20425;-65
2021/12/13 03:43:03;;;;;;;;;;;;;;;-1.25;100.00;90692.19;5093359;28;20011;-65
2021/12/13 03:45:38;;;;;;;;;;;;;;;-1.28;100.00;90690.84;5093315;28;20382;-65
2021/12/13 03:48:04;;;;;;;;;;;;;;;-1.32;100.00;90686.38;5093302;28;19920;-65
2021/12/13 03:50:33;;;;;;;;;;;;;;;-1.30;100.00;90695.53;5093233;28;19916;-65
2021/12/13 03:53:00;;;;;;;;;;;;;;;-1.34;100.00;90684.00;5092684;28;19916;-65
2021/12/13 03:55:27;;;;;;;;;;;;;;;-1.31;100.00;90682.72;5093107;28;19923;-65
2021/12/13 03:57:54;;;;;;;;;;;;;;;-1.30;100.00;90677.25;5093102;28;19924;-65
2021/12/13 04:00:22;;;;;;;;;;;;;;;-1.34;100.00;90675.38;5092746;28;19923;-65
2021/12/13 04:02:48;;;;;;;;;;;;;;;-1.36;100.00;90683.47;5093013;28;19924;-65
2021/12/13 04:05:19;;;;;;;;;;;;;;;-1.36;100.00;90690.50;5092780;28;19916;-65
2021/12/13 04:07:49;;;;;;;;;;;;;;;-1.35;100.00;90692.84;5092786;28;19916;-65
2021/12/13 04:10:25;;;;;;;;;;;;;;;-1.34;100.00;90696.25;5092892;28;19952;-65
2021/12/13 04:12:53;;;;;;;;;;;;;;;-1.35;100.00;90697.28;5092690;28;19916;-63
2021/12/13 04:15:50;;;;;;;;;;;;;;;-1.27;100.00;90704.69;5072566;28;19920;-68
2021/12/13 04:18:29;;;;;;;;;;;;;;;-1.19;100.00;90696.44;5072206;28;19916;-66
2021/12/13 04:21:02;;;;;;;;;;;;;;;-1.09;100.00;90704.41;5072113;28;19917;-67
2021/12/13 04:23:28;;;;;;;;;;;;;;;-1.09;100.00;90691.34;5071668;28;19927;-67
2021/12/13 04:25:53;;;;;;;;;;;;;;;-1.06;100.00;90703.91;5072063;28;19920;-68
2021/12/13 04:28:25;;;;;;;;;;;;;;;-1.09;100.00;90701.78;5071256;28;19916;-68
2021/12/13 04:30:50;;;;;;;;;;;;;;;-1.15;100.00;90701.94;5071779;28;19916;-68
2021/12/13 04:33:28;;;;;;;;;;;;;;;-1.21;100.00;90706.34;5071719;28;19928;-66
2021/12/13 04:35:57;;;;;;;;;;;;;;;-1.20;100.00;90697.47;5071489;28;20347;-67
2021/12/13 04:38:25;;;;;;;;;;;;;;;-1.23;100.00;90695.34;5071344;28;19994;-68
2021/12/13 04:40:51;;;;;;;;;;;;;;;-1.20;100.00;90700.09;5053726;28;20305;-67
2021/12/13 04:43:18;;;;;;;;;;;;;;;-1.24;100.00;90693.78;5071787;28;20037;-67
2021/12/13 04:45:47;;;;;;;;;;;;;;;-1.34;100.00;90704.88;5071551;28;19959;-66
2021/12/13 04:48:15;;;;;;;;;;;;;;;-1.36;100.00;90700.94;5071615;28;19920;-66
2021/12/13 04:50:55;;;;;;;;;;;;;;;-1.46;100.00;90706.00;5070269;28;19922;-66
2021/12/13 04:53:25;;;;;;;;;;;;;;;-1.34;100.00;90709.31;5071077;28;19916;-65
2021/12/13 04:55:51;;;;;;;;;;;;;;;-1.27;100.00;90715.13;5071528;28;19917;-65
2021/12/13 04:58:18;;;;;;;;;;;;;;;-1.33;100.00;90714.28;5071499;28;19920;-66
2021/12/13 05:00:45;;;;;;;;;;;;;;;-1.36;100.00;90717.38;5071450;28;19972;-69
2021/12/13 05:03:12;;;;;;;;;;;;;;;-1.39;100.00;90722.28;5071455;28;19916;-66
2021/12/13 05:05:38;;;;;;;;;;;;;;;-1.37;100.00;90720.22;5071208;28;19920;-65
2021/12/13 05:08:05;;;;;;;;;;;;;;;-1.39;100.00;90722.28;5070788;28;19974;-66
2021/12/13 05:10:31;;;;;;;;;;;;;;;-1.50;100.00;90734.41;5071298;28;20313;-67
2021/12/13 05:13:00;;;;;;;;;;;;;;;-1.54;100.00;90728.88;5071349;28;20012;-67
2021/12/13 05:15:27;;;;;;;;;;;;;;;-1.54;100.00;90736.72;5071299;28;19998;-68
2021/12/13 05:17:53;;;;;;;;;;;;;;;-1.46;100.00;90732.88;5071666;28;19979;-66
2021/12/13 05:20:24;;;;;;;;;;;;;;;-1.57;100.00;90729.38;5071546;28;20397;-67
2021/12/13 05:22:51;;;;;;;;;;;;;;;-1.63;100.00;90730.31;5071628;28;19952;-66
2021/12/13 05:25:35;;;;;;;;;;;;;;;-1.60;100.00;90736.88;5071449;28;19923;-67
2021/12/13 05:28:11;;;;;;;;;;;;;;;-1.59;100.00;90738.44;5071552;28;19916;-66
2021/12/13 05:30:42;;;;;;;;;;;;;;;-1.54;100.00;90747.16;5071679;28;19921;-66
2021/12/13 05:33:09;;;;;;;;;;;;;;;-1.53;100.00;90742.72;5071399;28;20390;-67
2021/12/13 05:35:36;;;;;;;;;;;;;;;-1.51;100.00;90749.28;5071230;28;19999;-67
2021/12/13 05:38:04;;;;;;;;;;;;;;;-1.53;100.00;90750.53;5071599;28;19921;-67
2021/12/13 05:40:29;;;;;;;;;;;;;;;-1.54;100.00;90748.97;5070268;28;20023;-67
2021/12/13 05:42:57;;;;;;;;;;;;;;;-1.51;100.00;90751.09;5075545;28;20424;-67
2021/12/13 05:45:35;;;;;;;;;;;;;;;-1.46;100.00;90753.75;5087656;28;20014;-66
2021/12/13 05:48:00;;;;;;;;;;;;;;;-1.43;100.00;90755.09;5095763;28;19946;-67
2021/12/13 05:50:28;;;;;;;;;;;;;;;-1.48;100.00;90757.66;5095632;28;20351;-67
2021/12/13 05:53:00;;;;;;;;;;;;;;;-1.46;100.00;90758.19;5095525;28;20002;-66
2021/12/13 05:55:27;;;;;;;;;;;;;;;-1.47;100.00;90752.19;5095590;28;19916;-67
2021/12/13 05:57:52;;;;;;;;;;;;;;;-1.48;100.00;90755.03;5095597;28;19920;-67
2021/12/13 06:00:28;;;;;;;;;;;;;;;-1.53;100.00;90764.38;5095745;28;20385;-66
2021/12/13 06:02:56;;;;;;;;;;;;;;;-1.46;100.00;90760.78;5095471;28;19927;-67
2021/12/13 06:05:23;;;;;;;;;;;;;;;-1.46;100.00;90769.41;5095063;28;19916;-67
2021/12/13 06:07:54;;;;;;;;;;;;;;;-1.46;100.00;90768.63;5095113;28;19917;-67
2021/12/13 06:10:21;;;;;;;;;;;;;;;-1.41;100.00;90768.72;5095472;28;20286;-67
2021/12/13 06:12:53;;;;;;;;;;;;;;;-1.40;100.00;90768.47;5095235;28;19917;-67
2021/12/13 06:15:23;;;;;;;;;;;;;;;-1.29;100.00;90772.78;5094658;28;19917;-67
2021/12/13 06:18:08;;;;;;;;;;;;;;;-1.30;100.00;90767.78;5094931;28;19926;-67
2021/12/13 06:20:37;;;;;;;;;;;;;;;-1.25;100.00;90766.06;5095005;28;19924;-65
2021/12/13 06:23:05;;;;;;;;;;;;;;;-1.28;100.00;90776.16;5095247;28;20320;-65
2021/12/13 06:25:31;;;;;;;;;;;;;;;-1.35;100.00;90778.97;5094781;28;20054;-65
2021/12/13 06:27:59;;;;;;;;;;;;;;;-1.30;100.00;90779.03;5094842;28;20007;-65
2021/12/13 06:30:26;;;;;;;;;;;;;;;-1.25;100.00;90778.31;5094894;28;19916;-67
2021/12/13 06:33:12;;;;;;;;;;;;;;;-1.23;100.00;90782.25;5094692;28;19923;-65
2021/12/13 06:35:49;;;;;;;;;;;;;;;-1.22;100.00;90780.44;5094576;28;19931;-67
2021/12/13 06:38:20;;;;;;;;;;;;;;;-1.21;100.00;90782.00;5094673;28;20415;-67
2021/12/13 06:40:50;;;;;;;;;;;;;;;-1.24;100.00;90787.72;5094731;28;20289;-65
2021/12/13 06:43:34;;;;;;;;;;;;;;;-1.15;100.00;90796.69;5094572;28;19981;-65
2021/12/13 06:46:01;;;;;;;;;;;;;;;-1.09;100.00;90787.13;5094385;28;20007;-65
2021/12/13 06:48:34;;;;;;;;;;;;;;;-1.05;100.00;90783.78;5094475;28;20056;-65
2021/12/13 06:51:06;;;;;;;;;;;;;;;-0.99;100.00;90788.03;5094449;28;19923;-65
2021/12/13 06:53:32;;;;;;;;;;;;;;;-0.89;100.00;90794.41;5093890;28;19920;-65
2021/12/13 06:55:57;;;;;;;;;;;;;;;-0.86;100.00;90786.88;5094262;28;19926;-66
2021/12/13 06:58:27;;;;;;;;;;;;;;;-1.01;100.00;90797.13;5094369;28;19920;-67
2021/12/13 07:00:56;;;;;;;;;;;;;;;-0.96;100.00;90794.59;5094597;28;19964;-67
2021/12/13 07:03:23;;;;;;;;;;;;;;;-0.88;100.00;90790.78;5094337;28;19945;-66
2021/12/13 07:05:53;;;;;;;;;;;;;;;-0.62;100.00;90805.72;5094121;28;19919;-65
2021/12/13 07:08:22;;;;;;;;;;;;;;;-0.46;100.00;90810.06;5094164;28;20011;-65
2021/12/13 07:10:55;;;;;;;;;;;;;;;-0.33;100.00;90809.66;5094079;28;19931;-65
2021/12/13 07:13:29;;;;;;;;;;;;;;;-0.19;100.00;90804.84;5093971;28;19963;-65
2021/12/13 07:16:06;;;;;;;;;;;;;;;-0.26;100.00;90819.16;5093862;28;19916;-65
2021/12/13 07:18:41;;;;;;;;;;;;;;;-0.13;100.00;90814.31;5093970;28;19916;-65
2021/12/13 07:21:29;;;;;;;;;;;;;;;-0.08;100.00;90814.38;5093879;28;19915;-65
2021/12/13 07:24:02;;;;;;;;;;;;;;;-0.15;100.00;90826.84;5055795;28;19916;-65
2021/12/13 07:26:29;;;;;;;;;;;;;;;-0.11;100.00;90817.47;5093569;28;20369;-65
2021/12/13 07:28:54;;;;;;;;;;;;;;;0.04;100.00;90818.66;5093672;28;19916;-65
2021/12/13 07:31:20;;;;;;;;;;;;;;;-0.25;100.00;90829.34;5093630;28;20025;-65
2021/12/13 07:33:45;;;;;;;;;;;;;;;-0.28;100.00;90827.25;5093433;28;19922;-65
2021/12/13 07:36:21;;;;;;;;;;;;;;;0.04;100.00;90824.69;5093213;28;19924;-65
2021/12/13 07:38:52;;;;;;;;;;;;;;;0.34;100.00;90828.59;5075279;28;19943;-65
2021/12/13 07:41:18;;;;;;;;;;;;;;;0.28;100.00;90839.00;5093415;28;20401;-65
2021/12/13 07:43:44;;;;;;;;;;;;;;;0.40;100.00;90843.28;5093395;28;19977;-65
2021/12/13 07:46:21;;;;;;;;;;;;;;;0.14;100.00;90848.28;5093275;28;20359;-65
2021/12/13 07:48:47;;;;;;;;;;;;;;;0.35;100.00;90851.09;5093260;28;19959;-65
2021/12/13 07:51:15;;;;;;;;;;;;;;;0.62;100.00;90851.03;5093185;28;19959;-65
2021/12/13 07:53:46;;;;;;;;;;;;;;;0.42;100.00;90847.22;5093144;28;20011;-65
2021/12/13 07:56:13;;;;;;;;;;;;;;;0.24;100.00;90851.00;5092893;28;20414;-65
2021/12/13 07:58:44;;;;;;;;;;;;;;;0.43;100.00;90848.81;5093172;28;20312;-65
2021/12/13 08:01:18;;;;;;;;;;;;;;;0.37;100.00;90854.25;5092543;28;19975;-64
2021/12/13 08:03:49;;;;;;;;;;;;;;;0.29;100.00;90853.66;5092389;28;19951;-65
2021/12/13 08:06:15;;;;;;;;;;;;;;;0.47;100.00;90855.13;5092782;28;19916;-65
2021/12/13 08:08:48;;;;;;;;;;;;;;;0.56;100.00;90856.25;5093102;28;19923;-65
2021/12/13 08:11:13;;;;;;;;;;;;;;;0.49;100.00;90853.06;5093006;28;19923;-65
2021/12/13 08:13:39;;;;;;;;;;;;;;;0.45;100.00;90861.63;5091755;28;20296;-65
2021/12/13 08:16:08;;;;;;;;;;;;;;;0.49;100.00;90868.78;5092694;28;19916;-65
2021/12/13 08:18:41;;;;;;;;;;;;;;;0.63;100.00;90868.31;5092753;28;19920;-65
2021/12/13 08:21:06;;;;;;;;;;;;;;;0.65;100.00;90871.50;5092657;28;19922;-65
2021/12/13 08:23:44;;;;;;;;;;;;;;;0.79;100.00;90870.84;5074397;28;20018;-65
2021/12/13 08:26:12;;;;;;;;;;;;;;;0.80;100.00;90874.25;5092432;28;19916;-66
2021/12/13 08:28:37;;;;;;;;;;;;;;;0.75;100.00;90872.34;5092548;28;19963;-65
2021/12/13 08:31:04;;;;;;;;;;;;;;;0.83;100.00;90871.91;5092360;28;20057;-65
2021/12/13 08:33:32;;;;;;;;;;;;;;;0.91;100.00;90875.88;5092287;28;19916;-65
2021/12/13 08:36:03;;;;;;;;;;;;;;;0.59;100.00;90873.28;5092046;28;19949;-65
2021/12/13 08:38:32;;;;;;;;;;;;;;;0.46;100.00;90878.91;5092143;28;19916;-65
2021/12/13 08:40:59;;;;;;;;;;;;;;;0.53;100.00;90874.28;5092203;28;20010;-65
2021/12/13 08:43:57;;;;;;;;;;;;;;;0.46;100.00;90871.06;5092250;28;19916;-65
2021/12/13 08:46:32;;;;;;;;;;;;;;;0.17;100.00;90875.81;5047450;28;19920;-65
2021/12/13 08:48:58;;;;;;;;;;;;;;;0.43;100.00;90876.81;5092251;28;19959;-65
2021/12/13 08:51:26;;;;;;;;;;;;;;;0.37;100.00;90875.97;5092196;28;19955;-66
2021/12/13 08:54:21;;;;;;;;;;;;;;;0.21;100.00;90871.66;5092352;28;19984;-65
2021/12/13 08:56:49;;;;;;;;;;;;;;;0.40;100.00;90869.47;5074897;28;19973;-66
2021/12/13 08:59:24;;;;;;;;;;;;;;;0.51;100.00;90874.53;5092165;28;20002;-66
2021/12/13 09:02:00;;;;;;;;;;;;;;;0.27;100.00;90874.06;5092003;28;20006;-66
2021/12/13 09:04:29;;;;;;;;;;;;;;;0.32;100.00;90865.47;5092168;28;19920;-66
2021/12/13 09:06:56;;;;;;;;;;;;;;;0.50;100.00;90869.56;5091961;28;19916;-65
2021/12/13 09:09:22;;;;;;;;;;;;;;;0.85;100.00;90871.66;5092224;28;20316;-66
2021/12/13 09:11:59;;;;;;;;;;;;;;;1.10;100.00;90869.19;5091943;28;19926;-66
2021/12/13 09:14:36;;;;;;;;;;;;;;;1.28;100.00;90867.22;5091687;28;19963;-66
2021/12/13 09:17:08;;;;;;;;;;;;;;;1.37;100.00;90869.06;5091809;28;20305;-66
2021/12/13 09:19:52;;;;;;;;;;;;;;;1.61;100.00;90863.44;5091906;28;19927;-66
2021/12/13 09:22:20;;;;;;;;;;;;;;;1.58;100.00;90863.91;5091826;28;19927;-65
2021/12/13 09:24:48;;;;;;;;;;;;;;;1.31;100.00;90858.84;5091710;28;19916;-66
2021/12/13 09:27:17;;;;;;;;;;;;;;;1.25;100.00;90855.38;5091667;28;20410;-66
2021/12/13 09:29:47;;;;;;;;;;;;;;;1.24;100.00;90848.56;5091816;28;20008;-66
2021/12/13 09:32:13;;;;;;;;;;;;;;;1.24;100.00;90853.81;5091789;28;19920;-66
2021/12/13 09:34:38;;;;;;;;;;;;;;;1.37;100.00;90849.94;5091611;28;19950;-66
2021/12/13 09:37:05;;;;;;;;;;;;;;;1.17;100.00;90854.03;5091476;28;19974;-66
2021/12/13 09:39:30;;;;;;;;;;;;;;;0.96;100.00;90847.13;5091725;28;19970;-66
2021/12/13 09:41:59;;;;;;;;;;;;;;;1.07;100.00;90851.34;5091638;28;20448;-66
2021/12/13 09:44:29;;;;;;;;;;;;;;;0.73;100.00;90850.88;5091492;28;19974;-66
2021/12/13 09:47:03;;;;;;;;;;;;;;;0.86;100.00;90853.06;5091635;28;19967;-66
2021/12/13 09:49:32;;;;;;;;;;;;;;;0.87;100.00;90844.16;5091575;28;19919;-66
2021/12/13 09:52:00;;;;;;;;;;;;;;;0.88;100.00;90855.44;5091519;28;20033;-66
2021/12/13 09:54:35;;;;;;;;;;;;;;;0.72;100.00;90841.44;5091329;28;19916;-66
2021/12/13 09:57:04;;;;;;;;;;;;;;;0.94;100.00;90837.91;5091417;28;20445;-66
2021/12/13 09:59:44;;;;;;;;;;;;;;;1.25;100.00;90851.97;5091484;28;19920;-66
2021/12/13 10:02:17;;;;;;;;;;;;;;;1.33;100.00;90847.06;5091547;28;19923;-66
2021/12/13 10:04:43;;;;;;;;;;;;;;;1.40;100.00;90839.72;5091426;28;19935;-66
2021/12/13 10:07:20;;;;;;;;;;;;;;;1.04;100.00;90841.38;5091459;28;20003;-66
2021/12/13 10:09:47;;;;;;;;;;;;;;;0.78;100.00;90839.63;5091442;28;19973;-66
2021/12/13 10:12:24;;;;;;;;;;;;;;;0.99;100.00;90851.84;5091383;28;20368;-66
2021/12/13 10:14:51;;;;;;;;;;;;;;;1.26;100.00;90846.47;5091246;28;19981;-66
2021/12/13 10:17:18;;;;;;;;;;;;;;;1.43;100.00;90851.56;5091354;28;19916;-66
2021/12/13 10:19:49;;;;;;;;;;;;;;;1.31;100.00;90849.13;5091305;28;19924;-66
2021/12/13 10:22:16;;;;;;;;;;;;;;;1.68;100.00;90840.38;5091313;28;19916;-66
2021/12/13 10:24:43;;;;;;;;;;;;;;;1.35;100.00;90855.44;5091154;28;20305;-66
2021/12/13 10:27:10;;;;;;;;;;;;;;;1.46;100.00;90851.03;5089204;28;19916;-66
2021/12/13 10:29:37;;;;;;;;;;;;;;;1.80;100.00;90846.19;5095016;28;19923;-66
2021/12/13 10:32:10;;;;;;;;;;;;;;;1.88;100.00;90848.31;5094974;28;19920;-66
2021/12/13 10:34:38;;;;;;;;;;;;;;;1.87;100.00;90846.72;5094739;28;19923;-66
2021/12/13 10:37:09;;;;;;;;;;;;;;;1.78;100.00;90843.03;5094538;28;19924;-66
2021/12/13 10:39:36;;;;;;;;;;;;;;;1.74;100.00;90847.22;5094770;28;19916;-66
2021/12/13 10:42:05;;;;;;;;;;;;;;;1.49;100.00;90840.84;5094684;28;19916;-66
2021/12/13 10:44:30;;;;;;;;;;;;;;;1.42;100.00;90842.09;5094587;28;19995;-66
2021/12/13 10:47:01;;;;;;;;;;;;;;;1.45;100.00;90839.78;5094633;28;20374;-66
2021/12/13 10:49:28;;;;;;;;;;;;;;;1.65;100.00;90840.91;5094571;28;20365;-66
2021/12/13 10:52:13;;;;;;;;;;;;;;;1.57;100.00;90839.53;5094608;28;20376;-66
2021/12/13 10:54:44;;;;;;;;;;;;;;;1.86;100.00;90832.03;5093827;28;19923;-66
2021/12/13 10:57:21;;;;;;;;;;;;;;;1.78;100.00;90832.56;5094424;28;19916;-66
2021/12/13 10:59:49;;;;;;;;;;;;;;;1.97;100.00;90831.03;5094399;28;19923;-66
2021/12/13 11:02:16;;;;;;;;;;;;;;;1.78;100.00;90830.72;5094374;28;20007;-66
2021/12/13 11:04:47;;;;;;;;;;;;;;;1.65;100.00;90823.31;5094088;28;20067;-66
2021/12/13 11:07:13;;;;;;;;;;;;;;;1.61;100.00;90827.53;5094290;28;20011;-66
2021/12/13 11:09:40;;;;;;;;;;;;;;;1.52;100.00;90829.03;5094250;28;19994;-66
2021/12/13 11:12:06;;;;;;;;;;;;;;;1.73;100.00;90825.44;5094088;28;19916;-66
2021/12/13 11:14:33;;;;;;;;;;;;;;;1.96;100.00;90833.91;5094052;28;19916;-66
2021/12/13 11:17:01;;;;;;;;;;;;;;;1.75;100.00;90828.63;5094043;28;20394;-66
2021/12/13 11:19:30;;;;;;;;;;;;;;;1.66;100.00;90829.38;5075859;28;19916;-66
2021/12/13 11:22:01;;;;;;;;;;;;;;;1.97;100.00;90831.03;5093977;28;19916;-66
2021/12/13 11:24:27;;;;;;;;;;;;;;;1.72;100.00;90826.50;5093805;28;19916;-66
2021/12/13 11:26:56;;;;;;;;;;;;;;;1.58;100.00;90827.22;5093869;28;20359;-66
2021/12/13 11:29:22;;;;;;;;;;;;;;;1.68;100.00;90832.50;5093875;28;19923;-66
2021/12/13 11:31:47;;;;;;;;;;;;;;;1.78;100.00;90827.31;5093746;28;19920;-66
2021/12/13 11:34:31;;;;;;;;;;;;;;;1.61;100.00;90831.97;5093627;28;19921;-66
2021/12/13 11:36:59;;;;;;;;;;;;;;;1.52;100.00;90829.03;5093543;28;20069;-66
2021/12/13 11:39:43;;;;;;;;;;;;;;;1.64;100.00;90824.38;5092424;28;19917;-66
2021/12/13 11:42:28;;;;;;;;;;;;;;;1.72;100.00;90823.06;5093619;28;19998;-66
2021/12/13 11:45:11;;;;;;;;;;;;;;;1.74;100.00;90823.63;5093365;28;19920;-66
2021/12/13 11:48:01;;;;;;;;;;;;;;;1.62;100.00;90817.81;5093465;28;19920;-66
2021/12/13 11:50:44;;;;;;;;;;;;;;;1.62;100.00;90825.69;5093491;28;19970;-66
2021/12/13 11:53:28;;;;;;;;;;;;;;;1.64;100.00;90826.22;5093320;28;19923;-66
2021/12/13 11:56:00;;;;;;;;;;;;;;;1.59;100.00;90820.97;5093279;28;19920;-66
2021/12/13 11:58:31;;;;;;;;;;;;;;;1.59;100.00;90820.97;5093320;28;19916;-66
2021/12/13 12:01:15;;;;;;;;;;;;;;;1.45;100.00;90821.44;5093251;28;19922;-66
2021/12/13 12:03:59;;;;;;;;;;;;;;;1.52;100.00;90828.25;5093161;28;19980;-66
2021/12/13 12:06:43;;;;;;;;;;;;;;;1.42;100.00;90819.31;5093327;28;19920;-66
2021/12/13 12:09:08;;;;;;;;;;;;;;;1.43;100.00;90831.38;5092910;28;20369;-66
2021/12/13 12:11:49;;;;;;;;;;;;;;;1.41;100.00;90828.19;5093012;28;19973;-66
2021/12/13 12:14:16;;;;;;;;;;;;;;;1.39;100.00;90832.91;5092800;28;19920;-66
2021/12/13 12:16:43;;;;;;;;;;;;;;;1.14;100.00;90827.56;5093220;28;19928;-66
2021/12/13 12:19:12;;;;;;;;;;;;;;;1.21;100.00;90830.72;5092827;28;19916;-66
2021/12/13 12:21:58;;;;;;;;;;;;;;;1.19;100.00;90832.81;5092755;28;19989;-66
2021/12/13 12:24:23;;;;;;;;;;;;;;;0.99;100.00;90838.75;5092703;28;19923;-66
2021/12/13 12:26:51;;;;;;;;;;;;;;;1.06;100.00;90835.91;5092763;28;19916;-66
2021/12/13 12:29:17;;;;;;;;;;;;;;;1.13;100.00;90828.63;5092652;28;20444;-66
2021/12/13 12:31:44;;;;;;;;;;;;;;;0.97;100.00;90838.22;5092583;28;19920;-66
2021/12/13 12:34:11;;;;;;;;;;;;;;;0.63;100.00;90837.69;5092489;28;19916;-66
2021/12/13 12:36:45;;;;;;;;;;;;;;;0.81;100.00;90842.56;5092352;28;19920;-66
2021/12/13 12:39:29;;;;;;;;;;;;;;;0.87;100.00;90838.94;5092526;28;19923;-66
2021/12/13 12:42:13;;;;;;;;;;;;;;;0.69;100.00;90843.78;5092484;28;19985;-66
2021/12/13 12:45:04;;;;;;;;;;;;;;;0.80;100.00;90846.22;5092292;28;19920;-66
2021/12/13 12:47:29;;;;;;;;;;;;;;;1.02;100.00;90850.53;5060902;28;19919;-66
2021/12/13 12:50:10;;;;;;;;;;;;;;;1.04;100.00;90843.22;5091929;28;19946;-66
2021/12/13 12:52:45;;;;;;;;;;;;;;;0.98;100.00;90844.25;5092258;28;19923;-66
2021/12/13 12:55:16;;;;;;;;;;;;;;;0.94;100.00;90848.38;5091792;28;19925;-66
2021/12/13 12:57:41;;;;;;;;;;;;;;;0.98;100.00;90847.66;5092123;28;19980;-66
2021/12/13 13:00:07;;;;;;;;;;;;;;;0.95;100.00;90853.41;5092057;28;20445;-66
2021/12/13 13:02:33;;;;;;;;;;;;;;;0.86;100.00;90852.28;5091957;28;19927;-66
2021/12/13 13:05:03;;;;;;;;;;;;;;;0.65;100.00;90850.56;5091712;28;20356;-66